sensor_id;sensor_type;location;lat;lon;timestamp;pressure;altitude;pressure_sealevel;temperature;humidity
78411;BME280;67706;51.074;-1.796;2023-07-13T00:00:56;101099.34;;;14.28;89.34
78411;BME280;67706;51.074;-1.796;2023-07-13T00:03:23;101103.38;;;14.19;89.87
78411;BME280;67706;51.074;-1.796;2023-07-13T00:05:59;101095.94;;;14.26;89.38
78411;BME280;67706;51.074;-1.796;2023-07-13T00:08:26;101098.50;;;14.15;88.87
78411;BME280;67706;51.074;-1.796;2023-07-13T00:10:53;101097.25;;;14.11;89.50
78411;BME280;67706;51.074;-1.796;2023-07-13T00:13:20;101100.88;;;13.98;90.36
78411;BME280;67706;51.074;-1.796;2023-07-13T00:15:46;101100.41;;;14.01;90.60
78411;BME280;67706;51.074;-1.796;2023-07-13T00:18:13;101097.88;;;13.93;90.50
78411;BME280;67706;51.074;-1.796;2023-07-13T00:20:40;101098.34;;;13.97;90.34
78411;BME280;67706;51.074;-1.796;2023-07-13T00:23:09;101100.66;;;14.06;89.63
78411;BME280;67706;51.074;-1.796;2023-07-13T00:25:36;101100.88;;;13.98;89.75
78411;BME280;67706;51.074;-1.796;2023-07-13T00:28:03;101098.13;;;13.92;89.90
78411;BME280;67706;51.074;-1.796;2023-07-13T00:30:30;101095.34;;;13.92;90.17
78411;BME280;67706;51.074;-1.796;2023-07-13T00:32:57;101103.84;;;13.90;90.51
78411;BME280;67706;51.074;-1.796;2023-07-13T00:35:26;101098.53;;;13.95;89.86
78411;BME280;67706;51.074;-1.796;2023-07-13T00:37:52;101100.00;;;13.98;89.76
78411;BME280;67706;51.074;-1.796;2023-07-13T00:40:21;101092.78;;;14.03;89.82
78411;BME280;67706;51.074;-1.796;2023-07-13T00:42:47;101097.66;;;14.08;89.55
78411;BME280;67706;51.074;-1.796;2023-07-13T00:48:21;101097.66;;;14.08;88.90
78411;BME280;67706;51.074;-1.796;2023-07-13T00:50:51;101098.50;;;14.15;87.50
78411;BME280;67706;51.074;-1.796;2023-07-13T00:53:19;101091.50;;;14.12;87.58
78411;BME280;67706;51.074;-1.796;2023-07-13T00:55:49;101096.22;;;14.05;88.39
78411;BME280;67706;51.074;-1.796;2023-07-13T00:58:16;101089.84;;;13.98;88.84
78411;BME280;67706;51.074;-1.796;2023-07-13T01:00:44;101091.09;;;14.02;88.59
78411;BME280;67706;51.074;-1.796;2023-07-13T01:03:13;101083.47;;;13.98;89.32
78411;BME280;67706;51.074;-1.796;2023-07-13T01:05:40;101087.31;;;13.97;88.77
78411;BME280;67706;51.074;-1.796;2023-07-13T01:08:07;101089.63;;;13.93;88.77
78411;BME280;67706;51.074;-1.796;2023-07-13T01:10:34;101096.00;;;13.94;88.87
78411;BME280;67706;51.074;-1.796;2023-07-13T01:13:05;101091.97;;;13.83;89.41
78411;BME280;67706;51.074;-1.796;2023-07-13T01:15:36;101091.75;;;13.78;89.67
78411;BME280;67706;51.074;-1.796;2023-07-13T01:18:03;101095.97;;;13.74;89.64
78411;BME280;67706;51.074;-1.796;2023-07-13T01:20:31;101095.56;;;13.77;89.47
78411;BME280;67706;51.074;-1.796;2023-07-13T01:23:03;101089.00;;;13.72;89.46
78411;BME280;67706;51.074;-1.796;2023-07-13T01:25:31;101086.44;;;13.64;89.86
78411;BME280;67706;51.074;-1.796;2023-07-13T01:27:58;101087.06;;;13.72;89.85
78411;BME280;67706;51.074;-1.796;2023-07-13T01:30:25;101100.03;;;13.65;89.77
78411;BME280;67706;51.074;-1.796;2023-07-13T01:32:52;101085.19;;;13.66;89.84
78411;BME280;67706;51.074;-1.796;2023-07-13T01:35:18;101097.28;;;13.65;90.02
78411;BME280;67706;51.074;-1.796;2023-07-13T01:37:45;101095.78;;;13.69;89.44
78411;BME280;67706;51.074;-1.796;2023-07-13T01:40:13;101091.53;;;13.67;89.77
78411;BME280;67706;51.074;-1.796;2023-07-13T01:42:41;101090.69;;;13.66;89.40
78411;BME280;67706;51.074;-1.796;2023-07-13T01:45:08;101082.66;;;13.71;90.17
78411;BME280;67706;51.074;-1.796;2023-07-13T01:47:34;101080.94;;;13.70;88.80
78411;BME280;67706;51.074;-1.796;2023-07-13T01:50:01;101083.50;;;13.65;89.19
78411;BME280;67706;51.074;-1.796;2023-07-13T01:52:28;101094.53;;;13.65;90.30
78411;BME280;67706;51.074;-1.796;2023-07-13T01:54:54;101094.53;;;13.65;89.64
78411;BME280;67706;51.074;-1.796;2023-07-13T01:57:22;101096.66;;;13.63;89.67
78411;BME280;67706;51.074;-1.796;2023-07-13T01:59:49;101094.06;;;13.62;90.20
78411;BME280;67706;51.074;-1.796;2023-07-13T02:02:16;101101.31;;;13.63;90.23
78411;BME280;67706;51.074;-1.796;2023-07-13T02:04:42;101096.66;;;13.63;89.76
78411;BME280;67706;51.074;-1.796;2023-07-13T02:07:09;101097.06;;;13.60;90.39
78411;BME280;67706;51.074;-1.796;2023-07-13T02:09:36;101092.38;;;13.54;90.93
78411;BME280;67706;51.074;-1.796;2023-07-13T02:12:03;101096.22;;;13.53;90.33
78411;BME280;67706;51.074;-1.796;2023-07-13T02:14:31;101085.59;;;13.50;90.44
78411;BME280;67706;51.074;-1.796;2023-07-13T02:16:58;101086.66;;;13.36;90.57
78411;BME280;67706;51.074;-1.796;2023-07-13T02:19:24;101090.69;;;13.33;90.50
78411;BME280;67706;51.074;-1.796;2023-07-13T02:21:51;101087.28;;;13.31;90.69
78411;BME280;67706;51.074;-1.796;2023-07-13T02:24:18;101084.31;;;13.33;90.63
78411;BME280;67706;51.074;-1.796;2023-07-13T02:26:46;101087.69;;;13.28;91.26
78411;BME280;67706;51.074;-1.796;2023-07-13T02:29:13;101081.34;;;13.28;91.56
78411;BME280;67706;51.074;-1.796;2023-07-13T02:31:41;101076.88;;;13.27;90.74
78411;BME280;67706;51.074;-1.796;2023-07-13T02:34:08;101074.13;;;13.27;91.04
78411;BME280;67706;51.074;-1.796;2023-07-13T02:36:35;101082.59;;;13.19;91.12
78411;BME280;67706;51.074;-1.796;2023-07-13T02:39:04;101085.53;;;13.04;91.33
78411;BME280;67706;51.074;-1.796;2023-07-13T02:41:31;101074.06;;;13.07;91.25
78411;BME280;67706;51.074;-1.796;2023-07-13T02:43:58;101076.44;;;13.17;91.13
78411;BME280;67706;51.074;-1.796;2023-07-13T02:46:29;101080.88;;;13.05;91.41
78411;BME280;67706;51.074;-1.796;2023-07-13T02:48:57;101079.97;;;12.98;91.91
78411;BME280;67706;51.074;-1.796;2023-07-13T02:51:23;101081.22;;;12.95;92.17
78411;BME280;67706;51.074;-1.796;2023-07-13T02:53:50;101081.00;;;12.97;92.35
78411;BME280;67706;51.074;-1.796;2023-07-13T02:56:19;101080.38;;;12.95;92.31
78411;BME280;67706;51.074;-1.796;2023-07-13T02:58:46;101090.53;;;12.88;92.36
78411;BME280;67706;51.074;-1.796;2023-07-13T03:01:12;101093.94;;;12.90;92.42
78411;BME280;67706;51.074;-1.796;2023-07-13T03:03:44;101097.97;;;12.94;92.29
78411;BME280;67706;51.074;-1.796;2023-07-13T03:06:13;101103.06;;;13.03;91.97
78411;BME280;67706;51.074;-1.796;2023-07-13T03:08:40;101106.03;;;13.02;91.64
78411;BME280;67706;51.074;-1.796;2023-07-13T03:11:09;101097.78;;;13.02;91.95
78411;BME280;67706;51.074;-1.796;2023-07-13T03:13:37;101091.88;;;13.05;92.07
78411;BME280;67706;51.074;-1.796;2023-07-13T03:16:04;101078.72;;;13.00;92.10
78411;BME280;67706;51.074;-1.796;2023-07-13T03:18:31;101087.16;;;12.99;92.47
78411;BME280;67706;51.074;-1.796;2023-07-13T03:20:58;101081.69;;;13.05;92.19
78411;BME280;67706;51.074;-1.796;2023-07-13T03:23:26;101082.56;;;13.06;92.69
78411;BME280;67706;51.074;-1.796;2023-07-13T03:26:01;101081.31;;;13.15;91.29
78411;BME280;67706;51.074;-1.796;2023-07-13T03:28:28;101084.72;;;13.17;91.76
78411;BME280;67706;51.074;-1.796;2023-07-13T03:30:59;101080.50;;;13.27;91.69
78411;BME280;67706;51.074;-1.796;2023-07-13T03:33:26;101083.44;;;13.32;91.21
78411;BME280;67706;51.074;-1.796;2023-07-13T03:35:53;101079.22;;;13.36;90.95
78411;BME280;67706;51.074;-1.796;2023-07-13T03:38:19;101077.94;;;13.39;90.56
78411;BME280;67706;51.074;-1.796;2023-07-13T03:40:48;101078.78;;;13.33;89.67
78411;BME280;67706;51.074;-1.796;2023-07-13T03:43:15;101085.56;;;13.24;90.69
78411;BME280;67706;51.074;-1.796;2023-07-13T03:45:42;101086.38;;;13.18;90.86
78411;BME280;67706;51.074;-1.796;2023-07-13T03:48:09;101087.66;;;13.22;90.71
78411;BME280;67706;51.074;-1.796;2023-07-13T03:50:36;101085.56;;;13.17;90.89
78411;BME280;67706;51.074;-1.796;2023-07-13T03:53:02;101085.56;;;13.11;91.40
78411;BME280;67706;51.074;-1.796;2023-07-13T03:55:29;101088.47;;;13.03;91.38
78411;BME280;67706;51.074;-1.796;2023-07-13T03:58:00;101092.25;;;13.02;91.72
78411;BME280;67706;51.074;-1.796;2023-07-13T04:00:27;101096.47;;;12.91;92.52
78411;BME280;67706;51.074;-1.796;2023-07-13T04:02:54;101097.31;;;12.92;92.63
78411;BME280;67706;51.074;-1.796;2023-07-13T04:05:20;101095.19;;;12.87;92.39
78411;BME280;67706;51.074;-1.796;2023-07-13T04:07:47;101098.16;;;12.86;91.99
78411;BME280;67706;51.074;-1.796;2023-07-13T04:10:14;101097.25;;;12.78;93.07
78411;BME280;67706;51.074;-1.796;2023-07-13T04:12:40;101091.75;;;12.78;92.71
78411;BME280;67706;51.074;-1.796;2023-07-13T04:15:09;101096.63;;;12.76;92.19
78411;BME280;67706;51.074;-1.796;2023-07-13T04:17:36;101094.06;;;12.68;92.96
78411;BME280;67706;51.074;-1.796;2023-07-13T04:20:03;101095.09;;;12.67;93.20
78411;BME280;67706;51.074;-1.796;2023-07-13T04:22:30;101104.00;;;12.69;93.13
78411;BME280;67706;51.074;-1.796;2023-07-13T04:24:57;101104.88;;;12.76;92.92
78411;BME280;67706;51.074;-1.796;2023-07-13T04:27:23;101107.84;;;12.75;92.81
78411;BME280;67706;51.074;-1.796;2023-07-13T04:29:50;101108.72;;;12.75;92.86
78411;BME280;67706;51.074;-1.796;2023-07-13T04:32:18;101103.63;;;12.79;93.12
78411;BME280;67706;51.074;-1.796;2023-07-13T04:34:45;101114.63;;;12.79;93.31
78411;BME280;67706;51.074;-1.796;2023-07-13T04:37:11;101112.09;;;12.77;92.92
78411;BME280;67706;51.074;-1.796;2023-07-13T04:39:38;101116.81;;;12.90;92.47
78411;BME280;67706;51.074;-1.796;2023-07-13T04:42:05;101112.78;;;12.93;92.34
78411;BME280;67706;51.074;-1.796;2023-07-13T04:44:32;101117.66;;;12.97;92.25
78411;BME280;67706;51.074;-1.796;2023-07-13T04:46:59;101124.28;;;13.03;92.60
78411;BME280;67706;51.074;-1.796;2023-07-13T04:49:27;101121.78;;;13.14;91.95
78411;BME280;67706;51.074;-1.796;2023-07-13T04:51:53;101119.69;;;13.23;92.10
78411;BME280;67706;51.074;-1.796;2023-07-13T04:54:20;101122.00;;;13.26;91.38
78411;BME280;67706;51.074;-1.796;2023-07-13T04:56:47;101123.53;;;13.35;90.50
78411;BME280;67706;51.074;-1.796;2023-07-13T04:59:14;101125.88;;;13.38;90.54
78411;BME280;67706;51.074;-1.796;2023-07-13T05:01:41;101132.66;;;13.42;90.66
78411;BME280;67706;51.074;-1.796;2023-07-13T05:04:08;101131.41;;;13.44;90.51
78411;BME280;67706;51.074;-1.796;2023-07-13T05:06:36;101123.78;;;13.53;90.93
78411;BME280;67706;51.074;-1.796;2023-07-13T05:09:02;101131.00;;;13.80;89.07
78411;BME280;67706;51.074;-1.796;2023-07-13T05:11:29;101121.22;;;14.10;87.38
78411;BME280;67706;51.074;-1.796;2023-07-13T05:13:56;101133.13;;;14.30;86.02
78411;BME280;67706;51.074;-1.796;2023-07-13T05:16:22;101127.13;;;14.27;85.55
78411;BME280;67706;51.074;-1.796;2023-07-13T05:18:49;101129.06;;;14.40;85.20
78411;BME280;67706;51.074;-1.796;2023-07-13T05:21:16;101124.41;;;14.33;85.26
78411;BME280;67706;51.074;-1.796;2023-07-13T05:23:44;101127.59;;;14.11;86.53
78411;BME280;67706;51.074;-1.796;2023-07-13T05:26:11;101125.88;;;14.10;87.05
78411;BME280;67706;51.074;-1.796;2023-07-13T05:28:38;101129.72;;;14.15;86.88
78411;BME280;67706;51.074;-1.796;2023-07-13T05:31:06;101125.88;;;14.16;87.75
78411;BME280;67706;51.074;-1.796;2023-07-13T05:33:33;101132.66;;;14.20;88.07
78411;BME280;67706;51.074;-1.796;2023-07-13T05:36:00;101130.97;;;14.19;89.12
78411;BME280;67706;51.074;-1.796;2023-07-13T05:38:27;101133.75;;;14.19;88.62
78411;BME280;67706;51.074;-1.796;2023-07-13T05:40:56;101130.13;;;14.25;88.31
78411;BME280;67706;51.074;-1.796;2023-07-13T05:43:23;101128.44;;;14.31;87.78
78411;BME280;67706;51.074;-1.796;2023-07-13T05:45:52;101129.28;;;14.38;87.36
78411;BME280;67706;51.074;-1.796;2023-07-13T05:48:19;101125.88;;;14.43;86.79
78411;BME280;67706;51.074;-1.796;2023-07-13T05:50:45;101133.53;;;14.47;87.53
78411;BME280;67706;51.074;-1.796;2023-07-13T05:53:12;101140.50;;;14.50;87.17
78411;BME280;67706;51.074;-1.796;2023-07-13T05:55:41;101141.13;;;14.52;87.34
78411;BME280;67706;51.074;-1.796;2023-07-13T05:58:10;101153.66;;;14.48;87.59
78411;BME280;67706;51.074;-1.796;2023-07-13T06:00:37;101150.91;;;14.41;88.27
78411;BME280;67706;51.074;-1.796;2023-07-13T06:03:05;101157.28;;;14.48;88.30
78411;BME280;67706;51.074;-1.796;2023-07-13T06:05:32;101154.09;;;14.51;88.34
78411;BME280;67706;51.074;-1.796;2023-07-13T06:07:59;101154.69;;;14.66;87.87
78411;BME280;67706;51.074;-1.796;2023-07-13T06:10:26;101152.97;;;14.72;88.00
78411;BME280;67706;51.074;-1.796;2023-07-13T06:12:53;101158.47;;;14.85;87.43
78411;BME280;67706;51.074;-1.796;2023-07-13T06:15:21;101155.84;;;14.96;86.79
78411;BME280;67706;51.074;-1.796;2023-07-13T06:17:48;101170.69;;;15.08;86.09
78411;BME280;67706;51.074;-1.796;2023-07-13T06:20:15;101157.22;;;15.19;86.31
78411;BME280;67706;51.074;-1.796;2023-07-13T06:22:41;101174.34;;;15.40;85.72
78411;BME280;67706;51.074;-1.796;2023-07-13T06:25:09;101173.47;;;15.53;85.03
78411;BME280;67706;51.074;-1.796;2023-07-13T06:27:35;101170.22;;;15.62;83.84
78411;BME280;67706;51.074;-1.796;2023-07-13T06:30:02;101182.56;;;15.60;84.62
78411;BME280;67706;51.074;-1.796;2023-07-13T06:32:30;101179.63;;;15.55;85.04
78411;BME280;67706;51.074;-1.796;2023-07-13T06:34:57;101185.53;;;15.58;84.78
78411;BME280;67706;51.074;-1.796;2023-07-13T06:37:23;101187.25;;;15.59;85.10
78411;BME280;67706;51.074;-1.796;2023-07-13T06:39:50;101190.22;;;15.64;85.18
78411;BME280;67706;51.074;-1.796;2023-07-13T06:42:17;101175.53;;;15.64;84.55
78411;BME280;67706;51.074;-1.796;2023-07-13T06:44:43;101185.59;;;15.83;84.52
78411;BME280;67706;51.074;-1.796;2023-07-13T06:47:10;101195.81;;;15.82;84.35
78411;BME280;67706;51.074;-1.796;2023-07-13T06:49:38;101191.97;;;15.83;84.48
78411;BME280;67706;51.074;-1.796;2023-07-13T06:52:05;101192.19;;;15.82;84.74
78411;BME280;67706;51.074;-1.796;2023-07-13T06:54:32;101195.38;;;15.85;85.49
78411;BME280;67706;51.074;-1.796;2023-07-13T06:57:00;101197.88;;;15.94;84.51
78411;BME280;67706;51.074;-1.796;2023-07-13T06:59:27;101195.88;;;16.01;84.54
78411;BME280;67706;51.074;-1.796;2023-07-13T07:01:53;101208.44;;;16.03;84.08
78411;BME280;67706;51.074;-1.796;2023-07-13T07:04:20;101208.81;;;16.07;83.86
78411;BME280;67706;51.074;-1.796;2023-07-13T07:06:48;101215.16;;;16.14;83.75
78411;BME280;67706;51.074;-1.796;2023-07-13T07:09:15;101215.41;;;16.12;84.20
78411;BME280;67706;51.074;-1.796;2023-07-13T07:11:42;101210.72;;;16.13;83.45
78411;BME280;67706;51.074;-1.796;2023-07-13T07:14:09;101214.09;;;16.15;83.71
78411;BME280;67706;51.074;-1.796;2023-07-13T07:16:36;101217.22;;;16.25;82.96
78411;BME280;67706;51.074;-1.796;2023-07-13T07:19:02;101219.50;;;16.28;83.29
78411;BME280;67706;51.074;-1.796;2023-07-13T07:21:29;101224.44;;;16.26;83.96
78411;BME280;67706;51.074;-1.796;2023-07-13T07:23:57;101224.38;;;16.32;83.72
78411;BME280;67706;51.074;-1.796;2023-07-13T07:26:25;101226.91;;;16.34;83.72
78411;BME280;67706;51.074;-1.796;2023-07-13T07:28:51;101216.31;;;16.31;84.45
78411;BME280;67706;51.074;-1.796;2023-07-13T07:31:18;101229.47;;;16.35;84.24
78411;BME280;67706;51.074;-1.796;2023-07-13T07:33:45;101228.19;;;16.38;84.53
78411;BME280;67706;51.074;-1.796;2023-07-13T07:36:12;101231.56;;;16.40;84.10
78411;BME280;67706;51.074;-1.796;2023-07-13T07:38:38;101230.25;;;16.42;84.32
78411;BME280;67706;51.074;-1.796;2023-07-13T07:41:06;101237.25;;;16.45;83.89
78411;BME280;67706;51.074;-1.796;2023-07-13T07:43:33;101233.19;;;16.47;84.27
78411;BME280;67706;51.074;-1.796;2023-07-13T07:46:00;101228.63;;;16.59;83.33
78411;BME280;67706;51.074;-1.796;2023-07-13T07:48:26;101239.41;;;16.67;83.36
78411;BME280;67706;51.074;-1.796;2023-07-13T07:50:53;101235.34;;;16.70;82.78
78411;BME280;67706;51.074;-1.796;2023-07-13T07:53:20;101241.91;;;16.76;82.54
78411;BME280;67706;51.074;-1.796;2023-07-13T07:55:46;101228.75;;;16.71;82.64
78411;BME280;67706;51.074;-1.796;2023-07-13T07:58:15;101231.22;;;16.79;82.15
78411;BME280;67706;51.074;-1.796;2023-07-13T08:00:42;101236.22;;;16.89;80.97
78411;BME280;67706;51.074;-1.796;2023-07-13T08:03:09;101237.13;;;16.83;81.95
78411;BME280;67706;51.074;-1.796;2023-07-13T08:05:35;101235.09;;;16.96;80.55
78411;BME280;67706;51.074;-1.796;2023-07-13T08:08:03;101229.91;;;17.00;81.88
78411;BME280;67706;51.074;-1.796;2023-07-13T08:10:29;101231.94;;;17.11;81.34
78411;BME280;67706;51.074;-1.796;2023-07-13T08:12:56;101224.69;;;17.28;80.06
78411;BME280;67706;51.074;-1.796;2023-07-13T08:15:24;101218.13;;;17.40;79.33
78411;BME280;67706;51.074;-1.796;2023-07-13T08:17:51;101225.34;;;17.41;79.43
78411;BME280;67706;51.074;-1.796;2023-07-13T08:20:17;101221.28;;;17.44;79.96
78411;BME280;67706;51.074;-1.796;2023-07-13T08:22:44;101225.22;;;17.55;81.01
78411;BME280;67706;51.074;-1.796;2023-07-13T08:25:11;101214.31;;;17.71;80.78
78411;BME280;67706;51.074;-1.796;2023-07-13T08:27:38;101227.06;;;17.90;79.44
78411;BME280;67706;51.074;-1.796;2023-07-13T08:30:05;101221.91;;;18.05;77.99
78411;BME280;67706;51.074;-1.796;2023-07-13T08:32:36;101220.84;;;18.18;76.46
78411;BME280;67706;51.074;-1.796;2023-07-13T08:35:04;101217.47;;;18.27;75.48
78411;BME280;67706;51.074;-1.796;2023-07-13T08:37:30;101222.78;;;18.29;75.70
78411;BME280;67706;51.074;-1.796;2023-07-13T08:39:58;101215.91;;;18.32;74.56
78411;BME280;67706;51.074;-1.796;2023-07-13T08:42:37;101222.75;;;18.47;73.17
78411;BME280;67706;51.074;-1.796;2023-07-13T08:45:17;101224.56;;;18.65;73.96
78411;BME280;67706;51.074;-1.796;2023-07-13T08:47:51;101218.53;;;18.68;72.53
78411;BME280;67706;51.074;-1.796;2023-07-13T08:50:23;101215.63;;;18.74;71.15
78411;BME280;67706;51.074;-1.796;2023-07-13T08:52:52;101214.88;;;18.79;72.11
78411;BME280;67706;51.074;-1.796;2023-07-13T08:55:21;101226.75;;;18.74;70.21
78411;BME280;67706;51.074;-1.796;2023-07-13T08:57:56;101226.22;;;18.54;70.14
78411;BME280;67706;51.074;-1.796;2023-07-13T09:00:34;101221.53;;;18.55;69.71
78411;BME280;67706;51.074;-1.796;2023-07-13T09:03:07;101223.34;;;18.72;68.88
78411;BME280;67706;51.074;-1.796;2023-07-13T09:05:41;101228.91;;;18.49;68.60
78411;BME280;67706;51.074;-1.796;2023-07-13T09:08:21;101223.53;;;18.36;69.29
78411;BME280;67706;51.074;-1.796;2023-07-13T09:10:57;101220.88;;;18.41;70.78
78411;BME280;67706;51.074;-1.796;2023-07-13T09:13:37;101229.69;;;18.38;71.17
78411;BME280;67706;51.074;-1.796;2023-07-13T09:16:06;101221.28;;;18.45;71.25
78411;BME280;67706;51.074;-1.796;2023-07-13T09:18:38;101224.06;;;18.56;69.38
78411;BME280;67706;51.074;-1.796;2023-07-13T09:21:10;101222.50;;;18.49;69.35
78411;BME280;67706;51.074;-1.796;2023-07-13T09:23:39;101221.16;;;18.86;69.18
78411;BME280;67706;51.074;-1.796;2023-07-13T09:26:11;101217.13;;;19.17;69.31
78411;BME280;67706;51.074;-1.796;2023-07-13T09:28:43;101207.44;;;19.19;68.73
78411;BME280;67706;51.074;-1.796;2023-07-13T09:31:14;101209.38;;;19.19;68.20
78411;BME280;67706;51.074;-1.796;2023-07-13T09:33:43;101208.88;;;19.33;68.02
78411;BME280;67706;51.074;-1.796;2023-07-13T09:36:19;101211.88;;;19.32;68.07
78411;BME280;67706;51.074;-1.796;2023-07-13T09:38:49;101220.00;;;19.33;68.12
78411;BME280;67706;51.074;-1.796;2023-07-13T09:41:26;101219.16;;;19.33;68.61
78411;BME280;67706;51.074;-1.796;2023-07-13T09:44:07;101213.97;;;19.25;68.28
78411;BME280;67706;51.074;-1.796;2023-07-13T09:46:37;101211.38;;;19.46;68.49
78411;BME280;67706;51.074;-1.796;2023-07-13T09:49:05;101211.41;;;19.74;66.41
78411;BME280;67706;51.074;-1.796;2023-07-13T09:51:34;101212.56;;;19.62;67.18
78411;BME280;67706;51.074;-1.796;2023-07-13T09:54:01;101216.56;;;19.54;66.69
78411;BME280;67706;51.074;-1.796;2023-07-13T09:56:29;101213.56;;;19.56;66.22
78411;BME280;67706;51.074;-1.796;2023-07-13T09:58:56;101218.81;;;19.69;65.76
78411;BME280;67706;51.074;-1.796;2023-07-13T10:01:32;101225.66;;;19.78;65.80
78411;BME280;67706;51.074;-1.796;2023-07-13T10:04:00;101224.22;;;19.75;64.66
78411;BME280;67706;51.074;-1.796;2023-07-13T10:06:28;101225.47;;;19.68;65.57
78411;BME280;67706;51.074;-1.796;2023-07-13T10:08:56;101220.78;;;19.57;65.41
78411;BME280;67706;51.074;-1.796;2023-07-13T10:11:26;101217.66;;;19.81;64.76
78411;BME280;67706;51.074;-1.796;2023-07-13T10:13:56;101220.56;;;20.03;64.39
78411;BME280;67706;51.074;-1.796;2023-07-13T10:16:27;101224.25;;;19.92;62.52
78411;BME280;67706;51.074;-1.796;2023-07-13T10:19:00;101210.97;;;19.66;63.77
78411;BME280;67706;51.074;-1.796;2023-07-13T10:21:33;101214.72;;;19.88;63.52
78411;BME280;67706;51.074;-1.796;2023-07-13T10:24:05;101221.59;;;19.97;63.91
78411;BME280;67706;51.074;-1.796;2023-07-13T10:26:43;101220.09;;;19.78;62.76
78411;BME280;67706;51.074;-1.796;2023-07-13T10:29:14;101218.81;;;19.69;63.64
78411;BME280;67706;51.074;-1.796;2023-07-13T10:31:44;101214.63;;;19.55;62.92
78411;BME280;67706;51.074;-1.796;2023-07-13T10:34:12;101227.47;;;19.56;63.30
78411;BME280;67706;51.074;-1.796;2023-07-13T10:36:43;101216.56;;;19.54;62.35
78411;BME280;67706;51.074;-1.796;2023-07-13T10:39:15;101223.09;;;19.60;62.05
78411;BME280;67706;51.074;-1.796;2023-07-13T10:41:44;101218.38;;;19.60;61.21
78411;BME280;67706;51.074;-1.796;2023-07-13T10:44:19;101218.91;;;19.74;61.07
78411;BME280;67706;51.074;-1.796;2023-07-13T10:46:51;101220.13;;;19.95;60.19
78411;BME280;67706;51.074;-1.796;2023-07-13T10:49:19;101216.56;;;20.11;60.03
78411;BME280;67706;51.074;-1.796;2023-07-13T10:51:47;101224.63;;;19.96;61.14
78411;BME280;67706;51.074;-1.796;2023-07-13T10:54:19;101221.28;;;20.10;60.17
78411;BME280;67706;51.074;-1.796;2023-07-13T10:56:49;101214.75;;;20.33;60.81
78411;BME280;67706;51.074;-1.796;2023-07-13T10:59:18;101214.84;;;20.54;59.15
78411;BME280;67706;51.074;-1.796;2023-07-13T11:01:55;101217.09;;;20.41;58.82
78411;BME280;67706;51.074;-1.796;2023-07-13T11:04:23;101213.72;;;20.22;58.15
78411;BME280;67706;51.074;-1.796;2023-07-13T11:06:57;101212.44;;;20.30;58.64
78411;BME280;67706;51.074;-1.796;2023-07-13T11:09:34;101212.69;;;20.28;57.71
78411;BME280;67706;51.074;-1.796;2023-07-13T11:12:07;101218.00;;;20.46;56.96
78411;BME280;67706;51.074;-1.796;2023-07-13T11:14:36;101211.38;;;20.31;55.31
78411;BME280;67706;51.074;-1.796;2023-07-13T11:23:27;101227.06;;;20.53;56.16
78411;BME280;67706;51.074;-1.796;2023-07-13T11:25:55;101221.31;;;20.43;57.14
78411;BME280;67706;51.074;-1.796;2023-07-13T11:28:24;101237.09;;;20.21;58.37
78411;BME280;67706;51.074;-1.796;2023-07-13T11:31:03;101225.13;;;19.93;60.75
78411;BME280;67706;51.074;-1.796;2023-07-13T11:33:56;101241.47;;;19.61;64.73
78411;BME280;67706;51.074;-1.796;2023-07-13T11:36:30;101260.66;;;19.34;68.85
78411;BME280;67706;51.074;-1.796;2023-07-13T11:39:02;101257.78;;;18.94;72.89
78411;BME280;67706;51.074;-1.796;2023-07-13T11:41:32;101261.78;;;18.75;75.71
78411;BME280;67706;51.074;-1.796;2023-07-13T11:44:12;101248.97;;;18.74;79.08
78411;BME280;67706;51.074;-1.796;2023-07-13T11:46:45;101245.94;;;18.76;78.86
78411;BME280;67706;51.074;-1.796;2023-07-13T11:49:15;101240.88;;;18.84;77.66
78411;BME280;67706;51.074;-1.796;2023-07-13T11:51:44;101235.53;;;18.94;78.64
78411;BME280;67706;51.074;-1.796;2023-07-13T11:54:23;101239.88;;;19.14;80.23
78411;BME280;67706;51.074;-1.796;2023-07-13T11:56:52;101228.50;;;19.27;78.84
78411;BME280;67706;51.074;-1.796;2023-07-13T11:59:19;101224.09;;;19.54;79.51
78411;BME280;67706;51.074;-1.796;2023-07-13T12:01:49;101230.34;;;19.61;77.17
78411;BME280;67706;51.074;-1.796;2023-07-13T12:04:22;101232.25;;;19.72;76.00
78411;BME280;67706;51.074;-1.796;2023-07-13T12:06:55;101225.53;;;19.85;77.34
78411;BME280;67706;51.074;-1.796;2023-07-13T12:09:26;101221.44;;;20.04;74.37
78411;BME280;67706;51.074;-1.796;2023-07-13T12:11:53;101221.47;;;19.92;74.00
78411;BME280;67706;51.074;-1.796;2023-07-13T12:14:20;101221.66;;;19.86;71.91
78411;BME280;67706;51.074;-1.796;2023-07-13T12:16:50;101206.06;;;20.01;73.50
78411;BME280;67706;51.074;-1.796;2023-07-13T12:19:20;101207.41;;;20.15;71.77
78411;BME280;67706;51.074;-1.796;2023-07-13T12:21:48;101201.88;;;20.32;73.94
78411;BME280;67706;51.074;-1.796;2023-07-13T12:24:17;101194.19;;;20.55;72.89
78411;BME280;67706;51.074;-1.796;2023-07-13T12:26:51;101186.16;;;20.76;72.15
78411;BME280;67706;51.074;-1.796;2023-07-13T12:29:18;101182.41;;;20.87;70.37
78411;BME280;67706;51.074;-1.796;2023-07-13T12:31:46;101188.69;;;20.77;68.85
78411;BME280;67706;51.074;-1.796;2023-07-13T12:34:15;101190.25;;;20.35;69.10
78411;BME280;67706;51.074;-1.796;2023-07-13T12:36:46;101198.41;;;20.08;66.71
78411;BME280;67706;51.074;-1.796;2023-07-13T12:39:15;101187.19;;;20.20;65.55
78411;BME280;67706;51.074;-1.796;2023-07-13T12:41:44;101196.84;;;20.01;66.11
78411;BME280;67706;51.074;-1.796;2023-07-13T12:44:12;101200.53;;;19.73;65.25
78411;BME280;67706;51.074;-1.796;2023-07-13T12:46:52;101198.53;;;19.57;66.89
78411;BME280;67706;51.074;-1.796;2023-07-13T12:49:24;101225.75;;;19.03;68.70
78411;BME280;67706;51.074;-1.796;2023-07-13T12:51:56;101230.00;;;18.60;72.99
78411;BME280;67706;51.074;-1.796;2023-07-13T12:54:24;101228.94;;;18.31;75.21
78411;BME280;67706;51.074;-1.796;2023-07-13T12:56:54;101243.28;;;18.05;77.10